Akademic — LZDA — position and weather

sailwx.info

Track history (hours):
 
Tides and Currents Weather Stations Pressure Air Temp Water Temp Dewpoint Dewpoint Depression Visibility Wind Speed Wind Dir Waves Ship Positions

Oceanographic research ship Akademic (Bulgaria)

Detailed information on ship capabilities available from University of Delaware's Ocean Information Center.

Last reported at 2020-Oct-29 02:23 UTC. Time now 2020-Oct-29 02:52 UTC.
Position N 43°11' E 027°54'.

Length 35 m; draft 4.8 m.

Type: Other ship. MMSI: 207038000.

Date/timePositionNaut miles runAvg speedWind from/ knotsBaromVisibWave heightAir tempDewpointWater temp
2020-Oct-29 02:23N 43°11' E 027°54'0 0.0
2020-Oct-29 00:59N 43°11' E 027°54'0 0.0
2020-Oct-28 23:20N 43°11' E 027°54'0 0.0
2020-Oct-28 20:35N 43°11' E 027°54'0 0.0
2020-Oct-28 19:53N 43°11' E 027°54'0 0.0
2020-Oct-28 17:23N 43°11' E 027°54'0 0.0
2020-Oct-28 12:49N 43°11' E 027°54'2 1.5
2020-Oct-28 11:30N 43°12' E 027°57'0 0.0
2020-Oct-28 11:00N 43°12' E 027°57'2 2.9
2020-Oct-28 10:27N 43°11' E 027°59'1 1.1
2020-Oct-28 09:40N 43°11' E 027°60'2 1.7
2020-Oct-28 08:30N 43°11' E 027°57'2 2.0
2020-Oct-28 07:23N 43°11' E 027°54'0 0.0
2020-Oct-28 06:29N 43°11' E 027°54'0 0.0
2020-Oct-28 03:50N 43°11' E 027°54'0 0.0
2020-Oct-27 22:52N 43°11' E 027°54'0 0.0
2020-Oct-27 20:31N 43°11' E 027°54'0 0.0
2020-Oct-27 12:19N 43°11' E 027°54'0 0.0
2020-Oct-27 10:22N 43°11' E 027°54'0 0.0
2020-Oct-27 07:58N 43°11' E 027°54'0 0.0
2020-Oct-27 07:01N 43°11' E 027°54'0 0.0
2020-Oct-27 05:58N 43°11' E 027°54'0 0.0
2020-Oct-27 03:22N 43°11' E 027°54'0 0.0
2020-Oct-27 02:52N 43°11' E 027°54'0 0.0
2020-Oct-26 23:25N 43°11' E 027°54'0 0.0
2020-Oct-26 18:22N 43°11' E 027°54'0 0.0
2020-Oct-26 11:27N 43°11' E 027°54'0 0.0
2020-Oct-26 10:18N 43°11' E 027°54'0 0.0
2020-Oct-26 06:33N 43°11' E 027°54'0 0.0
2020-Oct-26 06:06N 43°11' E 027°54'0 0.0
2020-Oct-26 06:00N 43°11' E 027°54'0 0.0
2020-Oct-26 05:30N 43°11' E 027°54'0 0.0
2020-Oct-26 04:54N 43°11' E 027°54'0 0.0
2020-Oct-26 02:30N 43°11' E 027°54'0 0.0
2020-Oct-26 00:24N 43°11' E 027°54'0 0.0
2020-Oct-25 23:00N 43°11' E 027°54'8 0.6
2020-Oct-25 08:30N 43°04' E 028°00'20 6.5
2020-Oct-25 05:30N 42°45' E 027°54'17 1.5
2020-Oct-24 17:58N 42°28' E 027°52'13 8.6
2020-Oct-24 16:30N 42°15' E 027°53'12 4.7
2020-Oct-24 13:56N 42°04' E 027°60'59 1.2
2020-Oct-22 11:00N 43°04' E 027°56'4 3.8
2020-Oct-22 10:05N 43°07' E 027°57'41 1.5
2020-Oct-21 05:44N 43°35' E 028°38'2 1.2
2020-Oct-21 04:19N 43°36' E 028°36'0 0.0
2020-Oct-21 03:55N 43°36' E 028°36'0 0.0
2020-Oct-21 03:22N 43°36' E 028°36'0 0.0
2020-Oct-21 02:25N 43°36' E 028°36'39 1.7
2020-Oct-20 03:55N 43°11' E 027°54'  
Track history (hours):
 
Tides and Currents Weather Stations Pressure Air Temp Water Temp Dewpoint Dewpoint Depression Visibility Wind Speed Wind Dir Waves Ship Positions

Oceanographic research ship Akademic (Bulgaria)

Detailed information on ship capabilities available from University of Delaware's Ocean Information Center.

Last reported at 2020-Oct-29 02:23 UTC. Time now 2020-Oct-29 02:52 UTC.
Position N 43°11' E 027°54'.

Length 35 m; draft 4.8 m.

Type: Other ship. MMSI: 207038000.

Date/timePositionNaut miles runAvg speedWind from/ knotsBaromVisibWave heightAir tempDewpointWater temp
2020-Oct-29 02:23N 43°11' E 027°54'0 0.0
2020-Oct-29 00:59N 43°11' E 027°54'0 0.0
2020-Oct-28 23:20N 43°11' E 027°54'0 0.0
2020-Oct-28 20:35N 43°11' E 027°54'0 0.0
2020-Oct-28 19:53N 43°11' E 027°54'0 0.0
2020-Oct-28 17:23N 43°11' E 027°54'0 0.0
2020-Oct-28 12:49N 43°11' E 027°54'2 1.5
2020-Oct-28 11:30N 43°12' E 027°57'0 0.0
2020-Oct-28 11:00N 43°12' E 027°57'2 2.9
2020-Oct-28 10:27N 43°11' E 027°59'1 1.1
2020-Oct-28 09:40N 43°11' E 027°60'2 1.7
2020-Oct-28 08:30N 43°11' E 027°57'2 2.0
2020-Oct-28 07:23N 43°11' E 027°54'0 0.0
2020-Oct-28 06:29N 43°11' E 027°54'0 0.0
2020-Oct-28 03:50N 43°11' E 027°54'0 0.0
2020-Oct-27 22:52N 43°11' E 027°54'0 0.0
2020-Oct-27 20:31N 43°11' E 027°54'0 0.0
2020-Oct-27 12:19N 43°11' E 027°54'0 0.0
2020-Oct-27 10:22N 43°11' E 027°54'0 0.0
2020-Oct-27 07:58N 43°11' E 027°54'0 0.0
2020-Oct-27 07:01N 43°11' E 027°54'0 0.0
2020-Oct-27 05:58N 43°11' E 027°54'0 0.0
2020-Oct-27 03:22N 43°11' E 027°54'0 0.0
2020-Oct-27 02:52N 43°11' E 027°54'0 0.0
2020-Oct-26 23:25N 43°11' E 027°54'0 0.0
2020-Oct-26 18:22N 43°11' E 027°54'0 0.0
2020-Oct-26 11:27N 43°11' E 027°54'0 0.0
2020-Oct-26 10:18N 43°11' E 027°54'0 0.0
2020-Oct-26 06:33N 43°11' E 027°54'0 0.0
2020-Oct-26 06:06N 43°11' E 027°54'0 0.0
2020-Oct-26 06:00N 43°11' E 027°54'0 0.0
2020-Oct-26 05:30N 43°11' E 027°54'0 0.0
2020-Oct-26 04:54N 43°11' E 027°54'0 0.0
2020-Oct-26 02:30N 43°11' E 027°54'0 0.0
2020-Oct-26 00:24N 43°11' E 027°54'0 0.0
2020-Oct-25 23:00N 43°11' E 027°54'8 0.6
2020-Oct-25 08:30N 43°04' E 028°00'20 6.5
2020-Oct-25 05:30N 42°45' E 027°54'17 1.5
2020-Oct-24 17:58N 42°28' E 027°52'13 8.6
2020-Oct-24 16:30N 42°15' E 027°53'12 4.7
2020-Oct-24 13:56N 42°04' E 027°60'59 1.2
2020-Oct-22 11:00N 43°04' E 027°56'4 3.8
2020-Oct-22 10:05N 43°07' E 027°57'41 1.5
2020-Oct-21 05:44N 43°35' E 028°38'2 1.2
2020-Oct-21 04:19N 43°36' E 028°36'0 0.0
2020-Oct-21 03:55N 43°36' E 028°36'0 0.0
2020-Oct-21 03:22N 43°36' E 028°36'0 0.0
2020-Oct-21 02:25N 43°36' E 028°36'39 1.7
2020-Oct-20 03:55N 43°11' E 027°54'  

Dump ship's entire track history